Clairmont, Canada
Current Conditions -  °F | °C
As of 6:00 AM on Sunday 21 Dec 2014 (Local Time) from CYQU Reporting Station
Light Snow Light Snow  
Wind Chill: 15°   Ceiling: 1000
Heat Index: 23°   Visibility: 2mi
Dew Point: 23°   Wind: 7mph
Humidity: 100%   Direction: 320°NW
Pressure: 29.28"   Gusts: NA
Location:  55.24°N, 118.78°W
Report Text: CYQU 211300Z 32006KT 2SM -SN OVC010 M05/M05 A2928 RMK SC8 SLP959
Loading
Personal Weather Stations






























Interactive Weather Map New forecast layout! Learn more

10-Day Weather Forecast

Advertisements
Track Severe Weather on mobile